Terminal Aerodrome Forecast
Issued by NWS

Home | Current Version | Previous Version | Text Only | Print | Product List | Glossary On
Versions: 1 2 3 4 5 6 7 8 9 10 11 12 13 14 15 16 17 18 19 20
000
FTAK31 PAJN 210500
TAFAJN
TAF
PAJN 210529Z 2106/2206 08005KT P6SM VCSH SCT025 OVC050
     FM210900 08005KT P6SM -RA BKN030 OVC040
     FM211400 12009KT 5SM -RA BR BKN020 OVC040
     FM211900 15012KT 5SM -RA BR BKN020 OVC040
     FM212100 15010KT 6SM -RA BKN025 OVC040
     FM220200 12009KT 6SM -SHRA BKN025 OVC040=

USA.gov is the U.S. government's official web portal to all federal, state and local government web resources and services.